Time;durP1;ratioP1;P1;durP2;ratioP2;P2;SDS_P1;SDS_P2;PMS_P1;PMS_P2;Temp;Humidity;BMP_temperature;BMP_pressure;BME280_temperature;BME280_humidity;BME280_pressure;Samples;Min_cycle;Max_cycle;Signal;HPM_P1;HPM_P2
2022/08/19 00:00:07;;;;;;;1.25;0.60;;;;;;;21.09;62.72;100474.31;5076809;28;20103;-54
2022/08/19 00:02:34;;;;;;;1.05;0.60;;;;;;;20.99;62.61;100476.97;5076694;28;20021;-52
2022/08/19 00:04:59;;;;;;;0.65;0.65;;;;;;;21.03;62.55;100476.19;5076538;28;20082;-54
2022/08/19 00:07:25;;;;;;;1.98;0.80;;;;;;;21.02;62.80;100465.50;5076423;28;20028;-53
2022/08/19 00:09:51;;;;;;;0.50;0.50;;;;;;;20.91;63.68;100464.63;5058020;28;20119;-51
2022/08/19 00:12:17;;;;;;;1.02;0.60;;;;;;;20.93;63.48;100472.56;5074931;28;20036;-52
2022/08/19 00:14:42;;;;;;;1.15;0.60;;;;;;;20.90;62.85;100471.19;5076320;28;20025;-53
2022/08/19 00:17:09;;;;;;;0.82;0.70;;;;;;;20.88;63.67;100471.44;5076313;28;20484;-55
2022/08/19 00:19:36;;;;;;;2.40;0.70;;;;;;;20.74;65.58;100461.22;5075970;28;20112;-54
2022/08/19 00:22:02;;;;;;;0.93;0.70;;;;;;;20.73;65.20;100467.75;5076219;28;20036;-54
2022/08/19 00:24:28;;;;;;;0.75;0.75;;;;;;;20.64;64.75;100470.97;5075655;28;20029;-54
2022/08/19 00:26:56;;;;;;;1.35;0.75;;;;;;;20.58;66.29;100462.97;5076079;28;20046;-54
2022/08/19 00:29:24;;;;;;;0.95;0.60;;;;;;;20.37;66.45;100440.16;5074639;28;20031;-53
2022/08/19 00:31:54;;;;;;;1.75;0.60;;;;;;;20.51;65.70;100471.38;5076202;28;20413;-54
2022/08/19 00:34:21;;;;;;;2.28;0.60;;;;;;;20.38;65.28;100460.91;5076042;28;20032;-53
2022/08/19 00:36:47;;;;;;;0.98;0.55;;;;;;;20.31;67.02;100458.38;5076139;28;20029;-52
2022/08/19 00:39:15;;;;;;;0.60;0.60;;;;;;;20.37;67.21;100470.97;5075956;28;20401;-53
2022/08/19 00:41:42;;;;;;;1.58;0.60;;;;;;;20.41;66.80;100474.00;5076791;28;20115;-54
2022/08/19 00:44:13;;;;;;;0.40;0.40;;;;;;;20.37;65.94;100470.16;5059657;28;20029;-52
2022/08/19 00:46:42;;;;;;;1.13;0.68;;;;;;;20.25;67.03;100457.50;5076761;28;20466;-50
2022/08/19 00:49:14;;;;;;;0.82;0.50;;;;;;;20.23;67.38;100462.41;5076215;28;20078;-51
2022/08/19 00:51:42;;;;;;;1.45;0.80;;;;;;;20.22;68.12;100462.66;5075873;28;20409;-50
2022/08/19 00:54:08;;;;;;;1.17;0.90;;;;;;;20.26;68.18;100470.09;5059589;28;20033;-49
2022/08/19 00:56:36;;;;;;;1.10;0.77;;;;;;;20.21;68.57;100467.31;5077471;28;20033;-49
2022/08/19 00:59:08;;;;;;;1.08;0.60;;;;;;;20.26;68.58;100471.97;5059479;28;20468;-52
2022/08/19 01:01:34;;;;;;;1.20;1.00;;;;;;;20.24;67.72;100469.50;5059223;28;20043;-53
2022/08/19 01:03:59;;;;;;;1.50;1.20;;;;;;;20.19;68.27;100464.00;5076508;28;20033;-52
2022/08/19 01:06:26;;;;;;;0.73;0.70;;;;;;;20.08;68.11;100462.25;5057351;28;20108;-50
2022/08/19 01:08:54;;;;;;;0.82;0.70;;;;;;;20.10;68.53;100468.28;5076203;28;20469;-51
2022/08/19 01:11:21;;;;;;;1.80;0.75;;;;;;;20.02;68.78;100466.84;5058793;28;20115;-55
2022/08/19 01:13:46;;;;;;;1.02;0.63;;;;;;;19.92;68.53;100456.63;5076677;28;20539;-52
2022/08/19 01:16:14;;;;;;;1.02;0.60;;;;;;;19.91;68.46;100462.38;5075608;28;20063;-52
2022/08/19 01:18:42;;;;;;;1.58;0.80;;;;;;;19.81;68.94;100454.88;5057429;28;20033;-50
2022/08/19 01:21:15;;;;;;;0.90;0.65;;;;;;;19.81;69.33;100467.69;5073870;28;20063;-52
2022/08/19 01:23:42;;;;;;;1.30;0.80;;;;;;;19.70;69.33;100443.00;5056979;28;20078;-50
2022/08/19 01:26:15;;;;;;;0.70;0.70;;;;;;;19.70;69.32;100455.81;5074968;28;20025;-54
2022/08/19 01:28:44;;;;;;;0.90;0.80;;;;;;;19.69;69.80;100456.91;5074101;28;20056;-52
2022/08/19 01:31:14;;;;;;;0.75;0.57;;;;;;;19.65;69.40;100467.47;5075047;28;20033;-50
2022/08/19 01:33:40;;;;;;;2.97;0.80;;;;;;;19.57;70.58;100465.19;5074762;28;20036;-54
2022/08/19 01:36:09;;;;;;;1.80;0.70;;;;;;;19.64;69.85;100473.19;5074718;28;20036;-50
2022/08/19 01:38:38;;;;;;;1.15;0.68;;;;;;;19.61;69.94;100466.31;5056764;28;20024;-52
2022/08/19 01:41:05;;;;;;;1.38;0.88;;;;;;;19.64;69.75;100476.72;5074038;28;20469;-50
2022/08/19 01:43:32;;;;;;;0.75;0.70;;;;;;;19.54;70.04;100465.72;5073200;28;20036;-52
2022/08/19 01:45:58;;;;;;;1.13;0.68;;;;;;;19.60;70.84;100474.75;5056627;28;20488;-52
2022/08/19 01:48:24;;;;;;;1.02;0.82;;;;;;;19.59;70.89;100471.19;5056686;28;20044;-54
2022/08/19 01:50:49;;;;;;;1.42;0.60;;;;;;;19.57;71.47;100469.81;5073923;28;20051;-55
2022/08/19 01:53:15;;;;;;;0.63;0.40;;;;;;;19.59;70.46;100482.09;5073138;28;20039;-53
2022/08/19 01:55:43;;;;;;;0.50;0.50;;;;;;;19.58;70.88;100475.00;5056570;28;20020;-54
2022/08/19 01:58:15;;;;;;;0.93;0.60;;;;;;;19.61;70.64;100479.13;5056627;28;20046;-54
2022/08/19 02:00:42;;;;;;;1.83;0.55;;;;;;;19.54;70.25;100468.44;5075340;28;20356;-52
2022/08/19 02:03:09;;;;;;;1.60;0.70;;;;;;;19.50;70.26;100461.81;5058930;28;20032;-55
2022/08/19 02:05:35;;;;;;;1.15;0.60;;;;;;;19.48;70.75;100470.28;5075599;28;20048;-55
2022/08/19 02:08:01;;;;;;;0.50;0.50;;;;;;;19.41;71.22;100466.06;5077668;28;20081;-53
2022/08/19 02:10:26;;;;;;;0.68;0.55;;;;;;;19.41;71.27;100472.34;5078563;28;20024;-54
2022/08/19 02:12:52;;;;;;;1.85;0.65;;;;;;;19.34;71.41;100467.06;5077584;28;20032;-54
2022/08/19 02:15:19;;;;;;;1.50;0.80;;;;;;;19.32;71.78;100471.13;5076772;28;20188;-54
2022/08/19 02:17:46;;;;;;;1.45;0.68;;;;;;;19.32;71.55;100476.59;5056959;28;20040;-51
2022/08/19 02:20:13;;;;;;;1.23;1.10;;;;;;;19.29;71.81;100471.63;5074291;28;20028;-54
2022/08/19 02:22:41;;;;;;;1.13;0.60;;;;;;;19.28;72.13;100478.97;5074293;28;20029;-50
2022/08/19 02:25:08;;;;;;;0.82;0.70;;;;;;;19.28;72.33;100480.88;5057234;28;20025;-53
2022/08/19 02:27:33;;;;;;;1.40;0.68;;;;;;;19.33;71.38;100483.66;5075255;28;20099;-54
2022/08/19 02:30:00;;;;;;;1.15;0.80;;;;;;;19.25;72.30;100478.66;5073682;28;20462;-53
2022/08/19 02:32:27;;;;;;;1.23;0.80;;;;;;;19.31;71.80;100483.09;5056324;28;20063;-51
2022/08/19 02:34:52;;;;;;;1.17;0.68;;;;;;;19.35;71.88;100489.69;5073913;28;20466;-52
2022/08/19 02:40:04;;;;;;;0.95;0.60;;;;;;;19.37;71.75;100481.25;5058694;28;20116;-51
2022/08/19 02:42:31;;;;;;;4.63;0.80;;;;;;;19.38;71.94;100472.84;5074287;28;20078;-54
2022/08/19 02:44:56;;;;;;;0.70;0.68;;;;;;;19.37;71.18;100463.03;5073796;28;20025;-51
2022/08/19 02:47:22;;;;;;;1.85;0.80;;;;;;;19.48;71.49;100475.72;5073869;28;20039;-51
2022/08/19 02:49:49;;;;;;;1.20;0.85;;;;;;;19.49;71.46;100477.34;5074114;28;20028;-52
2022/08/19 02:52:16;;;;;;;2.42;1.10;;;;;;;19.45;72.37;100478.13;5073629;28;20049;-54
2022/08/19 02:54:42;;;;;;;1.60;0.90;;;;;;;19.42;72.43;100475.88;5072102;28;20461;-54
2022/08/19 02:57:07;;;;;;;0.82;0.60;;;;;;;19.45;71.63;100483.56;5073926;28;20074;-52
2022/08/19 02:59:33;;;;;;;3.03;0.63;;;;;;;19.57;71.68;100488.88;5073749;28;20029;-53
2022/08/19 03:01:59;;;;;;;0.88;0.65;;;;;;;19.48;73.05;100483.88;5073581;28;20028;-51
2022/08/19 03:04:26;;;;;;;1.83;0.90;;;;;;;19.52;72.67;100487.75;5074063;28;20032;-53
2022/08/19 03:06:52;;;;;;;1.13;0.85;;;;;;;19.45;71.93;100470.75;5074115;28;20077;-51
2022/08/19 03:09:19;;;;;;;0.65;0.60;;;;;;;19.60;71.88;100478.31;5073584;28;20099;-52
2022/08/19 03:11:45;;;;;;;1.58;0.60;;;;;;;19.62;72.01;100488.97;5073484;28;20035;-54
2022/08/19 03:14:12;;;;;;;1.05;0.60;;;;;;;19.63;72.27;100482.41;5073910;28;20029;-54
2022/08/19 03:16:46;;;;;;;1.38;0.60;;;;;;;19.65;72.29;100483.81;5055126;28;20047;-52
2022/08/19 03:19:12;;;;;;;0.95;0.73;;;;;;;19.58;73.01;100485.91;5073093;28;20037;-54
2022/08/19 03:21:38;;;;;;;1.40;0.70;;;;;;;19.56;73.19;100492.66;5055030;28;20433;-55
2022/08/19 03:24:07;;;;;;;0.65;0.65;;;;;;;19.57;73.36;100488.88;5073097;28;20107;-50
2022/08/19 03:26:33;;;;;;;1.10;0.80;;;;;;;19.54;73.54;100491.03;5073358;28;20165;-55
2022/08/19 03:29:04;;;;;;;1.33;0.70;;;;;;;19.54;74.38;100488.31;5056362;28;20032;-51
2022/08/19 03:31:31;;;;;;;1.45;0.90;;;;;;;19.42;74.83;100476.72;5077302;28;20109;-52
2022/08/19 03:33:57;;;;;;;0.88;0.80;;;;;;;19.43;74.52;100485.72;5059301;28;20465;-51
2022/08/19 03:36:25;;;;;;;1.73;1.02;;;;;;;19.33;76.58;100491.84;5077208;28;20074;-52
2022/08/19 03:38:54;;;;;;;2.33;1.00;;;;;;;19.33;76.28;100489.94;5077216;28;20032;-53
2022/08/19 03:41:23;;;;;;;2.70;1.15;;;;;;;19.38;75.91;100499.25;5076612;28;20070;-54
2022/08/19 03:43:50;;;;;;;0.68;0.68;;;;;;;19.37;75.35;100493.00;5076801;28;20032;-52
2022/08/19 03:46:20;;;;;;;1.67;1.20;;;;;;;19.30;76.62;100487.72;5077251;28;20025;-50
2022/08/19 03:48:47;;;;;;;1.50;1.25;;;;;;;19.27;77.47;100496.38;5059485;28;20426;-55
2022/08/19 03:51:21;;;;;;;1.90;1.13;;;;;;;19.24;77.94;100491.47;5077424;28;20497;-53
2022/08/19 03:53:48;;;;;;;1.25;0.70;;;;;;;19.27;77.46;100490.13;5059764;28;20071;-53
2022/08/19 03:56:14;;;;;;;1.50;1.02;;;;;;;19.27;77.34;100496.38;5076757;28;20032;-51
2022/08/19 03:58:41;;;;;;;1.25;0.98;;;;;;;19.28;77.51;100491.78;5076998;28;20024;-52
2022/08/19 04:01:09;;;;;;;2.75;1.30;;;;;;;19.25;78.18;100495.00;5076864;28;20032;-52
2022/08/19 04:03:35;;;;;;;1.55;1.10;;;;;;;19.23;77.46;100488.97;5058652;28;20071;-51
2022/08/19 04:06:15;;;;;;;1.60;1.48;;;;;;;19.23;77.53;100484.34;5059807;28;20040;-53
2022/08/19 04:08:43;;;;;;;1.83;1.08;;;;;;;19.31;77.08;100491.25;5076260;28;20143;-50
2022/08/19 04:11:11;;;;;;;3.03;1.98;;;;;;;19.33;77.49;100494.56;5058529;28;20028;-51
2022/08/19 04:13:38;;;;;;;3.35;2.20;;;;;;;19.23;78.10;100483.53;5076825;28;20025;-52
2022/08/19 04:16:05;;;;;;;3.05;2.03;;;;;;;19.14;78.67;100497.56;5076461;28;20025;-50
2022/08/19 04:18:32;;;;;;;2.58;2.28;;;;;;;19.05;78.68;100480.00;5076294;28;20032;-50
2022/08/19 04:20:59;;;;;;;5.95;2.28;;;;;;;19.17;78.84;100501.69;5058261;28;20082;-53
2022/08/19 04:23:25;;;;;;;2.92;2.40;;;;;;;19.18;78.59;100497.06;5058233;28;20040;-51
2022/08/19 04:25:51;;;;;;;2.38;1.98;;;;;;;19.16;78.88;100497.31;5076285;28;20111;-51
2022/08/19 04:28:17;;;;;;;6.30;2.60;;;;;;;19.12;79.22;100497.00;5075904;28;20103;-53
2022/08/19 04:30:47;;;;;;;3.00;2.53;;;;;;;19.06;79.27;100487.09;5076046;28;20082;-50
2022/08/19 04:33:15;;;;;;;1.80;1.67;;;;;;;19.18;78.47;100497.88;5057823;28;20028;-51
2022/08/19 04:35:44;;;;;;;3.20;2.10;;;;;;;19.18;78.54;100497.88;5074480;28;20036;-51
2022/08/19 04:38:11;;;;;;;2.40;1.80;;;;;;;19.17;77.77;100487.25;5074520;28;20034;-50
2022/08/19 04:43:34;;;;;;;1.73;1.10;;;;;;;19.21;77.96;100511.00;5060803;28;20055;-51
2022/08/19 04:46:10;;;;;;;1.27;0.93;;;;;;;19.27;77.13;100509.19;5058052;28;20039;-53
2022/08/19 04:48:37;;;;;;;1.33;0.90;;;;;;;19.23;76.30;100513.47;5075967;28;20111;-50
2022/08/19 04:51:09;;;;;;;0.80;0.80;;;;;;;19.25;75.77;100516.78;5075367;28;20049;-50
2022/08/19 04:53:38;;;;;;;1.17;0.80;;;;;;;19.29;75.22;100520.66;5041512;28;20071;-51
2022/08/19 04:56:07;;;;;;;0.77;0.70;;;;;;;19.27;74.32;100518.16;5074968;28;20108;-53
2022/08/19 04:58:35;;;;;;;2.47;0.80;;;;;;;19.26;74.23;100521.97;5075625;28;20064;-51
2022/08/19 05:01:01;;;;;;;0.95;0.73;;;;;;;19.25;73.82;100531.22;5057343;28;20059;-54
2022/08/19 05:03:27;;;;;;;1.48;0.60;;;;;;;19.24;73.78;100523.28;5073946;28;20472;-52
2022/08/19 05:05:52;;;;;;;1.13;0.60;;;;;;;19.22;73.80;100523.53;5074234;28;20028;-50
2022/08/19 05:08:20;;;;;;;0.63;0.60;;;;;;;19.24;73.19;100521.41;5075309;28;20058;-54
2022/08/19 05:10:51;;;;;;;1.63;0.60;;;;;;;19.24;73.43;100526.84;5058157;28;20020;-54
2022/08/19 05:13:19;;;;;;;0.88;0.70;;;;;;;19.27;72.96;100522.78;5057933;28;20029;-49
2022/08/19 05:15:54;;;;;;;0.43;0.43;;;;;;;19.27;73.37;100526.34;5057237;28;20113;-50
2022/08/19 05:23:58;;;;;;;0.43;0.38;;;;;;;19.33;73.68;100530.81;5060048;28;20040;-52
2022/08/19 05:26:25;;;;;;;0.50;0.47;;;;;;;19.38;73.63;100534.66;5074930;28;20074;-51
2022/08/19 05:28:53;;;;;;;0.55;0.55;;;;;;;19.37;73.38;100531.13;5073747;28;20060;-53
2022/08/19 05:31:19;;;;;;;1.17;0.60;;;;;;;19.41;73.11;100540.44;5074896;28;20043;-53
2022/08/19 05:33:45;;;;;;;0.57;0.57;;;;;;;19.39;72.82;100530.84;5074818;28;20123;-51
2022/08/19 05:36:11;;;;;;;0.60;0.50;;;;;;;19.29;72.92;100515.19;5073616;28;20504;-50
2022/08/19 05:38:37;;;;;;;1.25;0.80;;;;;;;19.51;72.59;100542.47;5074654;28;20028;-50
2022/08/19 05:41:11;;;;;;;2.15;0.63;;;;;;;19.61;73.09;100558.13;5073642;28;20063;-50
2022/08/19 05:43:37;;;;;;;0.82;0.65;;;;;;;19.57;72.59;100565.16;5074716;28;20445;-52
2022/08/19 05:46:05;;;;;;;2.60;0.73;;;;;;;19.57;72.80;100560.53;5074889;28;20083;-54
2022/08/19 05:48:33;;;;;;;0.55;0.50;;;;;;;19.56;73.17;100560.78;5056622;28;20028;-51
2022/08/19 05:51:06;;;;;;;0.80;0.70;;;;;;;19.41;73.23;100554.06;5074244;28;20099;-49
2022/08/19 05:53:33;;;;;;;1.17;0.70;;;;;;;19.48;72.93;100576.50;5056351;28;20076;-52
2022/08/19 05:56:05;;;;;;;0.95;0.60;;;;;;;19.48;73.20;100567.47;5074539;28;20029;-53
2022/08/19 05:58:32;;;;;;;1.90;0.52;;;;;;;19.49;72.95;100560.97;5074607;28;20042;-54
2022/08/19 06:00:58;;;;;;;0.60;0.60;;;;;;;19.56;72.77;100558.91;5056829;28;20056;-54
2022/08/19 06:03:24;;;;;;;1.27;0.70;;;;;;;19.50;72.54;100547.09;5056562;28;20025;-52
2022/08/19 06:05:49;;;;;;;0.70;0.50;;;;;;;19.61;72.43;100560.84;5074661;28;20050;-52
2022/08/19 06:08:18;;;;;;;1.95;0.52;;;;;;;19.66;72.37;100564.47;5074278;28;20039;-49
2022/08/19 06:10:43;;;;;;;1.08;0.70;;;;;;;19.65;72.21;100573.75;5073983;28;20020;-51
2022/08/19 06:13:09;;;;;;;0.95;0.60;;;;;;;19.54;72.36;100558.31;5074002;28;20477;-50
2022/08/19 06:15:35;;;;;;;1.25;0.50;;;;;;;19.56;72.21;100574.41;5074554;28;20131;-51
2022/08/19 06:18:01;;;;;;;5.95;0.60;;;;;;;19.45;72.03;100549.75;5074707;28;20103;-51
2022/08/19 06:20:26;;;;;;;1.88;0.88;;;;;;;19.50;72.25;100565.34;5073987;28;20362;-51
2022/08/19 06:22:53;;;;;;;1.25;0.68;;;;;;;19.52;72.22;100566.75;5074142;28;20032;-54
2022/08/19 06:25:19;;;;;;;1.92;0.80;;;;;;;19.52;71.94;100568.66;5073970;28;20500;-54
2022/08/19 06:27:46;;;;;;;0.93;0.55;;;;;;;19.41;72.33;100551.34;5074022;28;20032;-52
2022/08/19 06:30:12;;;;;;;0.57;0.50;;;;;;;19.53;71.82;100583.91;5073902;28;20082;-53
2022/08/19 06:32:37;;;;;;;1.55;0.60;;;;;;;19.43;71.96;100570.97;5073716;28;20036;-53
2022/08/19 06:35:04;;;;;;;1.75;0.60;;;;;;;19.42;71.83;100571.22;5074002;28;20074;-53
2022/08/19 06:37:30;;;;;;;1.13;0.82;;;;;;;19.40;71.92;100571.47;5073250;28;20067;-54
2022/08/19 06:39:56;;;;;;;0.70;0.70;;;;;;;19.35;71.95;100568.66;5073957;28;20037;-50
2022/08/19 06:42:22;;;;;;;1.30;0.70;;;;;;;19.33;72.05;100571.66;5074190;28;20024;-52
2022/08/19 06:44:49;;;;;;;1.63;0.60;;;;;;;19.29;71.79;100564.22;5074507;28;20036;-54
2022/08/19 06:47:18;;;;;;;1.48;0.70;;;;;;;19.28;71.86;100565.31;5074949;28;20373;-52
2022/08/19 06:49:45;;;;;;;1.75;0.70;;;;;;;19.19;71.22;100559.44;5074986;28;20029;-54
2022/08/19 06:52:11;;;;;;;3.42;0.90;;;;;;;19.38;71.01;100583.69;5074728;28;20049;-54
2022/08/19 06:54:39;;;;;;;6.72;3.70;;;;;;;19.34;70.65;100580.63;5075476;28;20033;-50
2022/08/19 06:57:06;;;;;;;7.10;3.15;;;;;;;19.37;70.38;100577.44;5074915;28;20028;-52
2022/08/19 06:59:32;;;;;;;1.17;1.05;;;;;;;19.31;70.42;100573.78;5074524;28;20029;-54
2022/08/19 07:02:02;;;;;;;1.70;1.00;;;;;;;19.40;70.77;100593.25;5073412;28;20032;-50
2022/08/19 07:04:32;;;;;;;1.40;1.10;;;;;;;19.37;70.42;100596.50;5059732;28;20028;-50
2022/08/19 07:07:02;;;;;;;1.23;1.00;;;;;;;19.39;69.87;100596.22;5061612;28;20500;-51
2022/08/19 07:09:29;;;;;;;1.67;0.80;;;;;;;19.40;69.61;100604.13;5078023;28;20130;-51
2022/08/19 07:11:56;;;;;;;1.85;1.10;;;;;;;19.35;69.25;100598.59;5079837;28;20032;-51
2022/08/19 07:14:24;;;;;;;1.95;0.90;;;;;;;19.34;68.97;100607.88;5078467;28;20029;-54
2022/08/19 07:16:54;;;;;;;2.88;1.10;;;;;;;19.33;68.60;100612.50;5078073;28;20028;-51
2022/08/19 07:19:21;;;;;;;2.78;1.08;;;;;;;19.31;68.36;100613.81;5077378;28;20028;-52
2022/08/19 07:21:52;;;;;;;0.70;0.65;;;;;;;19.27;67.62;100607.22;5060089;28;20041;-51
2022/08/19 07:24:20;;;;;;;1.70;1.02;;;;;;;19.27;67.41;100601.75;5077919;28;20025;-52
2022/08/19 07:26:46;;;;;;;2.70;1.20;;;;;;;19.29;66.93;100613.22;5076319;28;20077;-54
2022/08/19 07:29:12;;;;;;;4.68;1.02;;;;;;;19.30;66.80;100613.00;5059420;28;20067;-52
2022/08/19 07:31:38;;;;;;;1.48;1.00;;;;;;;19.33;66.36;100619.81;5059047;28;20020;-50
2022/08/19 07:34:06;;;;;;;3.03;1.05;;;;;;;19.38;66.50;100627.25;5077466;28;20036;-51
2022/08/19 07:36:35;;;;;;;2.95;1.42;;;;;;;19.29;66.48;100627.66;5076984;28;20032;-55
2022/08/19 07:39:06;;;;;;;2.00;1.15;;;;;;;19.31;66.42;100617.34;5076241;28;20465;-50
2022/08/19 07:41:32;;;;;;;2.38;1.05;;;;;;;19.09;66.29;100584.63;5077298;28;20028;-51
2022/08/19 07:44:03;;;;;;;2.63;1.00;;;;;;;19.49;65.85;100615.44;5076906;28;20035;-52
2022/08/19 07:46:31;;;;;;;1.33;0.70;;;;;;;19.59;65.36;100601.97;5076094;28;20090;-53
2022/08/19 07:48:57;;;;;;;1.50;1.33;;;;;;;19.92;64.65;100619.38;5076833;28;20505;-52
2022/08/19 07:51:24;;;;;;;5.07;1.60;;;;;;;19.97;64.38;100629.53;5058523;28;20489;-51
2022/08/19 07:53:50;;;;;;;2.28;0.90;;;;;;;20.09;62.44;100631.03;5076813;28;20043;-54
2022/08/19 07:56:18;;;;;;;1.58;0.88;;;;;;;20.17;62.32;100637.97;5077157;28;20032;-50
2022/08/19 07:58:46;;;;;;;1.90;1.00;;;;;;;20.28;60.50;100631.56;5077145;28;20032;-55
2022/08/19 08:01:18;;;;;;;1.45;0.80;;;;;;;20.15;60.67;100626.50;5042605;28;20032;-52
2022/08/19 08:09:21;;;;;;;1.55;0.60;;;;;;;20.16;61.24;100627.31;5061302;28;20035;-51
2022/08/19 08:11:51;;;;;;;1.23;0.73;;;;;;;19.95;61.31;100609.84;5058551;28;20110;-51
2022/08/19 08:14:22;;;;;;;2.08;0.60;;;;;;;20.02;61.17;100618.66;5076499;28;20421;-50
2022/08/19 08:16:50;;;;;;;2.83;0.80;;;;;;;20.01;60.57;100627.94;5041497;28;20078;-51
2022/08/19 08:19:19;;;;;;;1.70;0.80;;;;;;;19.99;60.59;100630.91;5058429;28;20032;-53
2022/08/19 08:21:45;;;;;;;1.45;0.73;;;;;;;20.02;59.98;100629.56;5076359;28;20048;-52
2022/08/19 08:24:11;;;;;;;1.67;0.73;;;;;;;20.04;59.24;100644.63;5076190;28;20028;-51
2022/08/19 08:26:39;;;;;;;0.82;0.75;;;;;;;20.11;59.16;100644.41;5058589;28;20406;-51
2022/08/19 08:29:07;;;;;;;1.23;0.80;;;;;;;20.12;59.23;100632.44;5058095;28;20033;-51
2022/08/19 08:31:33;;;;;;;2.63;1.10;;;;;;;20.26;58.58;100646.50;5076117;28;20484;-54
2022/08/19 08:34:00;;;;;;;1.60;0.80;;;;;;;20.41;58.81;100648.59;5041501;28;20036;-49
2022/08/19 08:36:27;;;;;;;3.67;0.63;;;;;;;20.50;57.25;100638.88;5058138;28;20032;-52
2022/08/19 08:38:53;;;;;;;2.78;0.65;;;;;;;20.61;56.83;100643.41;5075774;28;20036;-54
2022/08/19 08:41:55;;;;;;;3.72;0.70;;;;;;;20.71;57.03;100633.69;5075751;28;20032;-51
2022/08/19 08:44:29;;;;;;;2.00;0.82;;;;;;;20.69;56.74;100634.78;5061296;28;20032;-49
2022/08/19 08:47:01;;;;;;;2.25;0.70;;;;;;;20.72;56.06;100636.16;5057464;28;20496;-50
2022/08/19 08:49:39;;;;;;;1.92;0.68;;;;;;;20.78;55.10;100631.56;5074389;28;20074;-54
2022/08/19 08:52:11;;;;;;;2.53;0.70;;;;;;;21.04;55.24;100633.47;5057648;28;20044;-52
2022/08/19 08:54:42;;;;;;;2.75;0.80;;;;;;;21.46;54.33;100629.19;5057542;28;20025;-53
2022/08/19 08:57:17;;;;;;;1.55;1.10;;;;;;;21.62;53.47;100636.41;5075310;28;20056;-55
2022/08/19 08:59:51;;;;;;;3.35;0.75;;;;;;;21.76;52.32;100633.22;5075336;28;20028;-52
2022/08/19 09:02:17;;;;;;;1.92;0.80;;;;;;;21.48;52.17;100637.13;5057948;28;20028;-53
2022/08/19 09:04:43;;;;;;;1.90;0.70;;;;;;;21.58;51.08;100638.03;5075476;28;20024;-54
2022/08/19 09:07:24;;;;;;;2.72;0.82;;;;;;;21.92;50.63;100645.09;5075632;28;20525;-52
2022/08/19 09:09:56;;;;;;;2.10;0.77;;;;;;;23.12;48.45;100646.03;5075735;28;20032;-50
2022/08/19 09:12:49;;;;;;;3.83;1.08;;;;;;;24.53;43.05;100630.66;5057117;28;20484;-52
2022/08/19 09:15:18;;;;;;;2.38;0.60;;;;;;;25.69;43.93;100624.56;5074306;28;20040;-51
2022/08/19 09:17:44;;;;;;;1.10;0.63;;;;;;;26.67;39.30;100617.06;5074383;28;20032;-55
2022/08/19 09:20:20;;;;;;;2.85;0.82;;;;;;;27.32;39.24;100630.94;5074924;28;20102;-52
2022/08/19 09:22:48;;;;;;;1.45;0.73;;;;;;;27.92;37.53;100605.28;5057272;28;20034;-49
2022/08/19 09:25:21;;;;;;;2.47;0.80;;;;;;;28.42;37.31;100623.84;5074219;28;20085;-53
2022/08/19 09:27:48;;;;;;;5.32;0.90;;;;;;;28.73;35.01;100626.78;5074226;28;20453;-53
2022/08/19 09:30:19;;;;;;;3.00;1.00;;;;;;;28.95;33.96;100614.88;5074898;28;20037;-53
2022/08/19 09:32:45;;;;;;;3.00;0.85;;;;;;;27.56;39.13;100621.66;5074952;28;20039;-53
2022/08/19 09:35:12;;;;;;;3.10;0.80;;;;;;;29.06;36.64;100614.66;5075024;28;20412;-55
2022/08/19 09:37:38;;;;;;;3.65;1.20;;;;;;;29.59;34.22;100615.78;5075036;28;20086;-50
2022/08/19 09:40:06;;;;;;;2.80;0.80;;;;;;;30.01;33.69;100619.09;5075046;28;20038;-50
2022/08/19 09:42:33;;;;;;;1.65;0.60;;;;;;;30.74;35.25;100615.78;5074716;28;20032;-51
2022/08/19 09:44:59;;;;;;;3.30;1.10;;;;;;;31.00;31.16;100601.94;5056504;28;20033;-53
2022/08/19 09:47:25;;;;;;;1.83;0.98;;;;;;;31.64;30.20;100607.50;5073071;28;20074;-50
2022/08/19 09:49:51;;;;;;;2.05;1.20;;;;;;;32.03;29.92;100610.28;5074594;28;20103;-54
2022/08/19 09:52:17;;;;;;;4.78;1.15;;;;;;;32.14;29.88;100619.88;5056414;28;20127;-54
2022/08/19 09:54:43;;;;;;;2.70;1.00;;;;;;;31.20;32.15;100611.53;5074569;28;20427;-51
2022/08/19 09:57:09;;;;;;;2.22;1.00;;;;;;;31.96;30.50;100608.00;5074571;28;20147;-50
2022/08/19 09:59:35;;;;;;;2.47;1.15;;;;;;;32.57;26.90;100620.72;5074368;28;20044;-55
2022/08/19 10:02:01;;;;;;;4.70;1.20;;;;;;;32.82;27.15;100618.09;5074316;28;20469;-52
2022/08/19 10:05:47;;;;;;;5.82;1.50;;;;;;;32.94;28.78;100634.84;5074362;28;20037;-52
2022/08/19 10:07:13;;;;;;;4.05;1.30;;;;;;;33.43;26.59;100634.22;5059348;28;20488;-52
2022/08/19 10:09:40;;;;;;;3.45;1.17;;;;;;;33.25;25.58;100625.25;5056392;28;20021;-55
2022/08/19 10:12:08;;;;;;;3.40;1.40;;;;;;;33.65;26.99;100617.09;5074251;28;20086;-56
2022/08/19 10:14:34;;;;;;;5.45;1.38;;;;;;;34.45;27.16;100632.41;5072790;28;20469;-53
2022/08/19 10:17:02;;;;;;;2.95;1.20;;;;;;;32.47;26.07;100626.72;5074245;28;20060;-54
2022/08/19 10:19:32;;;;;;;6.15;1.48;;;;;;;30.65;29.52;100643.53;5073918;28;20028;-53
2022/08/19 10:21:58;;;;;;;3.97;1.60;;;;;;;31.85;26.84;100642.84;5073547;28;20028;-55
2022/08/19 10:24:25;;;;;;;6.18;1.65;;;;;;;32.58;26.69;100619.63;5074690;28;20032;-51
2022/08/19 10:26:51;;;;;;;7.20;1.50;;;;;;;33.28;24.93;100621.75;5074198;28;20032;-56
2022/08/19 10:29:17;;;;;;;3.80;1.38;;;;;;;33.44;24.82;100630.28;5074245;28;20099;-55
2022/08/19 10:31:43;;;;;;;7.85;1.55;;;;;;;33.69;24.23;100639.50;5074005;28;20055;-54
2022/08/19 10:34:09;;;;;;;4.50;1.70;;;;;;;33.96;23.53;100635.22;5055462;28;20082;-56
2022/08/19 10:36:36;;;;;;;7.10;1.70;;;;;;;34.47;23.37;100635.69;5073751;28;20040;-53
2022/08/19 10:39:08;;;;;;;4.38;1.27;;;;;;;34.72;21.88;100630.06;5072647;28;20388;-53
2022/08/19 10:41:37;;;;;;;5.15;1.55;;;;;;;35.00;23.55;100632.84;5075010;28;20040;-56
2022/08/19 10:44:06;;;;;;;6.75;1.90;;;;;;;35.12;22.38;100640.34;5072527;28;20032;-56
2022/08/19 10:46:35;;;;;;;4.53;1.80;;;;;;;35.26;20.62;100649.13;5073642;28;20514;-54
2022/08/19 10:49:02;;;;;;;4.78;1.73;;;;;;;34.28;23.71;100653.00;5073429;28;20032;-52
2022/08/19 10:54:16;;;;;;;5.95;1.65;;;;;;;33.97;23.02;100652.75;5058626;28;20115;-55
2022/08/19 10:56:58;;;;;;;8.30;1.83;;;;;;;34.58;22.23;100646.31;5073542;28;20034;-55
2022/08/19 10:59:27;;;;;;;4.15;1.80;;;;;;;35.15;20.24;100650.81;5075114;28;20421;-50
2022/08/19 11:01:58;;;;;;;5.75;1.50;;;;;;;35.31;22.23;100648.09;5074211;28;20093;-52
2022/08/19 11:04:24;;;;;;;7.05;1.77;;;;;;;35.94;20.56;100643.69;5073555;28;20097;-55
2022/08/19 11:06:50;;;;;;;4.47;1.65;;;;;;;36.21;20.45;100653.16;5073696;28;20032;-57
2022/08/19 11:09:24;;;;;;;5.55;1.70;;;;;;;36.70;18.01;100652.69;5074118;28;20036;-55
2022/08/19 11:11:50;;;;;;;5.90;1.90;;;;;;;36.68;17.40;100645.84;5074613;28;20039;-54
2022/08/19 11:14:19;;;;;;;3.35;1.60;;;;;;;36.55;18.33;100656.31;5074229;28;20415;-55
2022/08/19 11:16:45;;;;;;;4.70;1.85;;;;;;;36.79;17.99;100658.06;5073720;28;20078;-55
2022/08/19 11:19:12;;;;;;;5.15;1.95;;;;;;;36.84;18.70;100657.78;5074097;28;20032;-53
2022/08/19 11:21:42;;;;;;;5.78;1.80;;;;;;;37.24;16.89;100658.56;5075091;28;20082;-54
2022/08/19 11:24:12;;;;;;;4.20;1.83;;;;;;;36.74;19.43;100661.16;5074445;28;20039;-56
2022/08/19 11:26:40;;;;;;;5.53;2.03;;;;;;;36.50;17.83;100665.00;5056887;28;20029;-54
2022/08/19 11:29:11;;;;;;;7.03;2.15;;;;;;;35.42;17.73;100662.31;5040369;28;20107;-51
2022/08/19 11:31:38;;;;;;;3.17;1.80;;;;;;;34.60;18.28;100655.16;5056901;28;20525;-51
2022/08/19 11:34:07;;;;;;;4.65;1.80;;;;;;;34.64;18.54;100647.69;5056320;28;20119;-52
2022/08/19 11:36:36;;;;;;;5.03;1.98;;;;;;;35.15;17.51;100647.19;5055373;28;20334;-53
2022/08/19 11:39:05;;;;;;;5.05;1.73;;;;;;;35.62;18.08;100661.25;5073396;28;20067;-49
2022/08/19 11:41:31;;;;;;;5.47;2.17;;;;;;;35.76;18.03;100660.03;5073015;28;20033;-53
2022/08/19 11:43:57;;;;;;;15.35;1.90;;;;;;;36.55;16.43;100662.75;5073837;28;20037;-52
2022/08/19 11:46:25;;;;;;;5.65;2.33;;;;;;;37.09;15.23;100663.88;5073286;28;20075;-54